sensor_id;sensor_type;location;lat;lon;timestamp;P1;durP1;ratioP1;P2;durP2;ratioP2
781;SDS011;374;52.568;13.402;2023-05-31T00:02:12;2.63;;;2.00;;
781;SDS011;374;52.568;13.402;2023-05-31T00:04:38;4.37;;;2.37;;
781;SDS011;374;52.568;13.402;2023-05-31T00:07:04;2.73;;;2.27;;
781;SDS011;374;52.568;13.402;2023-05-31T00:09:31;2.70;;;2.47;;
781;SDS011;374;52.568;13.402;2023-05-31T00:11:56;3.37;;;1.70;;
781;SDS011;374;52.568;13.402;2023-05-31T00:14:22;2.17;;;1.97;;
781;SDS011;374;52.568;13.402;2023-05-31T00:16:48;4.93;;;2.50;;
781;SDS011;374;52.568;13.402;2023-05-31T00:19:13;2.67;;;2.20;;
781;SDS011;374;52.568;13.402;2023-05-31T00:21:39;3.20;;;1.77;;
781;SDS011;374;52.568;13.402;2023-05-31T00:24:04;2.70;;;1.93;;
781;SDS011;374;52.568;13.402;2023-05-31T00:26:30;3.03;;;2.23;;
781;SDS011;374;52.568;13.402;2023-05-31T00:28:55;2.60;;;2.37;;
781;SDS011;374;52.568;13.402;2023-05-31T00:31:21;2.33;;;2.13;;
781;SDS011;374;52.568;13.402;2023-05-31T00:33:46;3.50;;;2.40;;
781;SDS011;374;52.568;13.402;2023-05-31T00:36:12;2.30;;;2.10;;
781;SDS011;374;52.568;13.402;2023-05-31T00:38:37;2.60;;;2.10;;
781;SDS011;374;52.568;13.402;2023-05-31T00:41:03;5.60;;;2.43;;
781;SDS011;374;52.568;13.402;2023-05-31T00:43:28;3.60;;;2.73;;
781;SDS011;374;52.568;13.402;2023-05-31T00:45:54;2.93;;;2.10;;
781;SDS011;374;52.568;13.402;2023-05-31T00:48:19;4.33;;;2.33;;
781;SDS011;374;52.568;13.402;2023-05-31T00:50:45;6.50;;;2.40;;
781;SDS011;374;52.568;13.402;2023-05-31T00:53:10;4.27;;;2.30;;
781;SDS011;374;52.568;13.402;2023-05-31T00:55:36;4.57;;;2.50;;
781;SDS011;374;52.568;13.402;2023-05-31T00:58:02;3.20;;;2.80;;
781;SDS011;374;52.568;13.402;2023-05-31T01:00:28;3.20;;;2.67;;
781;SDS011;374;52.568;13.402;2023-05-31T01:02:55;3.10;;;2.20;;
781;SDS011;374;52.568;13.402;2023-05-31T01:05:21;3.37;;;2.20;;
781;SDS011;374;52.568;13.402;2023-05-31T01:07:46;3.27;;;2.03;;
781;SDS011;374;52.568;13.402;2023-05-31T01:10:12;3.60;;;2.23;;
781;SDS011;374;52.568;13.402;2023-05-31T01:12:44;3.00;;;2.40;;
781;SDS011;374;52.568;13.402;2023-05-31T01:15:17;2.63;;;2.40;;
781;SDS011;374;52.568;13.402;2023-05-31T01:20:24;6.37;;;2.60;;
781;SDS011;374;52.568;13.402;2023-05-31T01:28:27;2.90;;;2.10;;
781;SDS011;374;52.568;13.402;2023-05-31T01:30:58;3.40;;;2.30;;
781;SDS011;374;52.568;13.402;2023-05-31T01:33:27;5.50;;;2.67;;
781;SDS011;374;52.568;13.402;2023-05-31T01:35:52;5.20;;;2.83;;
781;SDS011;374;52.568;13.402;2023-05-31T01:38:18;4.03;;;2.07;;
781;SDS011;374;52.568;13.402;2023-05-31T01:40:43;3.57;;;2.47;;
781;SDS011;374;52.568;13.402;2023-05-31T01:43:09;4.50;;;2.70;;
781;SDS011;374;52.568;13.402;2023-05-31T01:45:36;2.70;;;2.10;;
781;SDS011;374;52.568;13.402;2023-05-31T01:48:02;4.43;;;2.50;;
781;SDS011;374;52.568;13.402;2023-05-31T01:50:30;2.73;;;2.23;;
781;SDS011;374;52.568;13.402;2023-05-31T01:52:58;3.47;;;2.50;;
781;SDS011;374;52.568;13.402;2023-05-31T01:55:23;3.33;;;2.17;;
781;SDS011;374;52.568;13.402;2023-05-31T01:57:49;2.83;;;2.60;;
781;SDS011;374;52.568;13.402;2023-05-31T02:00:15;2.87;;;2.20;;
781;SDS011;374;52.568;13.402;2023-05-31T02:02:41;6.90;;;2.67;;
781;SDS011;374;52.568;13.402;2023-05-31T02:05:08;2.37;;;2.17;;
781;SDS011;374;52.568;13.402;2023-05-31T02:07:36;5.93;;;2.07;;
781;SDS011;374;52.568;13.402;2023-05-31T02:10:02;3.67;;;2.60;;
781;SDS011;374;52.568;13.402;2023-05-31T02:12:28;3.60;;;2.70;;
781;SDS011;374;52.568;13.402;2023-05-31T02:14:53;2.73;;;2.40;;
781;SDS011;374;52.568;13.402;2023-05-31T02:17:19;2.57;;;2.37;;
781;SDS011;374;52.568;13.402;2023-05-31T02:19:48;2.60;;;2.40;;
781;SDS011;374;52.568;13.402;2023-05-31T02:22:17;2.67;;;2.47;;
781;SDS011;374;52.568;13.402;2023-05-31T02:24:43;7.80;;;2.07;;
781;SDS011;374;52.568;13.402;2023-05-31T02:27:08;2.67;;;2.20;;
781;SDS011;374;52.568;13.402;2023-05-31T02:29:34;3.87;;;2.80;;
781;SDS011;374;52.568;13.402;2023-05-31T02:32:00;2.80;;;2.60;;
781;SDS011;374;52.568;13.402;2023-05-31T02:34:26;2.37;;;2.10;;
781;SDS011;374;52.568;13.402;2023-05-31T02:36:51;4.13;;;2.50;;
781;SDS011;374;52.568;13.402;2023-05-31T02:39:17;3.37;;;2.87;;
781;SDS011;374;52.568;13.402;2023-05-31T02:41:43;2.60;;;2.40;;
781;SDS011;374;52.568;13.402;2023-05-31T02:44:08;3.50;;;2.47;;
781;SDS011;374;52.568;13.402;2023-05-31T02:46:34;2.67;;;2.40;;
781;SDS011;374;52.568;13.402;2023-05-31T02:48:59;2.73;;;2.47;;
781;SDS011;374;52.568;13.402;2023-05-31T02:51:25;3.77;;;2.30;;
781;SDS011;374;52.568;13.402;2023-05-31T02:53:50;3.10;;;2.13;;
781;SDS011;374;52.568;13.402;2023-05-31T02:56:16;3.53;;;2.83;;
781;SDS011;374;52.568;13.402;2023-05-31T02:58:41;4.93;;;2.87;;
781;SDS011;374;52.568;13.402;2023-05-31T03:01:07;6.13;;;2.97;;
781;SDS011;374;52.568;13.402;2023-05-31T03:03:33;3.03;;;2.33;;
781;SDS011;374;52.568;13.402;2023-05-31T03:05:58;2.77;;;2.50;;
781;SDS011;374;52.568;13.402;2023-05-31T03:08:24;2.33;;;2.13;;
781;SDS011;374;52.568;13.402;2023-05-31T03:10:50;3.53;;;2.90;;
781;SDS011;374;52.568;13.402;2023-05-31T03:13:15;4.60;;;3.30;;
781;SDS011;374;52.568;13.402;2023-05-31T03:15:41;6.17;;;3.13;;
781;SDS011;374;52.568;13.402;2023-05-31T03:18:06;6.30;;;3.37;;
781;SDS011;374;52.568;13.402;2023-05-31T03:20:32;3.33;;;3.03;;
781;SDS011;374;52.568;13.402;2023-05-31T03:22:58;3.93;;;3.07;;
781;SDS011;374;52.568;13.402;2023-05-31T03:25:24;6.17;;;3.13;;
781;SDS011;374;52.568;13.402;2023-05-31T03:27:50;7.87;;;2.80;;
781;SDS011;374;52.568;13.402;2023-05-31T03:30:16;5.00;;;2.80;;
781;SDS011;374;52.568;13.402;2023-05-31T03:32:41;3.50;;;2.97;;
781;SDS011;374;52.568;13.402;2023-05-31T03:35:07;2.93;;;2.40;;
781;SDS011;374;52.568;13.402;2023-05-31T03:37:33;5.10;;;2.97;;
781;SDS011;374;52.568;13.402;2023-05-31T03:39:59;4.20;;;2.93;;
781;SDS011;374;52.568;13.402;2023-05-31T03:42:24;3.90;;;2.77;;
781;SDS011;374;52.568;13.402;2023-05-31T03:44:50;5.33;;;3.17;;
781;SDS011;374;52.568;13.402;2023-05-31T03:47:15;3.87;;;3.17;;
781;SDS011;374;52.568;13.402;2023-05-31T03:49:41;2.93;;;2.47;;
781;SDS011;374;52.568;13.402;2023-05-31T03:52:06;5.23;;;3.07;;
781;SDS011;374;52.568;13.402;2023-05-31T03:54:35;4.37;;;3.13;;
781;SDS011;374;52.568;13.402;2023-05-31T03:57:01;3.90;;;3.00;;
781;SDS011;374;52.568;13.402;2023-05-31T03:59:26;3.13;;;2.57;;
781;SDS011;374;52.568;13.402;2023-05-31T04:01:52;2.73;;;2.53;;
781;SDS011;374;52.568;13.402;2023-05-31T04:04:17;6.80;;;2.50;;
781;SDS011;374;52.568;13.402;2023-05-31T04:06:43;2.70;;;2.50;;
781;SDS011;374;52.568;13.402;2023-05-31T04:09:08;6.27;;;2.60;;
781;SDS011;374;52.568;13.402;2023-05-31T04:11:34;3.30;;;2.77;;
781;SDS011;374;52.568;13.402;2023-05-31T04:13:59;5.80;;;3.17;;
781;SDS011;374;52.568;13.402;2023-05-31T04:16:25;5.37;;;3.30;;
781;SDS011;374;52.568;13.402;2023-05-31T04:18:51;6.77;;;3.17;;
781;SDS011;374;52.568;13.402;2023-05-31T04:21:16;3.50;;;2.90;;
781;SDS011;374;52.568;13.402;2023-05-31T04:23:42;2.83;;;2.13;;
781;SDS011;374;52.568;13.402;2023-05-31T04:26:08;3.37;;;3.07;;
781;SDS011;374;52.568;13.402;2023-05-31T04:28:33;5.00;;;2.57;;
781;SDS011;374;52.568;13.402;2023-05-31T04:30:59;4.20;;;2.50;;
781;SDS011;374;52.568;13.402;2023-05-31T04:33:25;9.80;;;3.90;;
781;SDS011;374;52.568;13.402;2023-05-31T04:35:54;4.77;;;3.03;;
781;SDS011;374;52.568;13.402;2023-05-31T04:38:21;5.10;;;2.60;;
781;SDS011;374;52.568;13.402;2023-05-31T04:40:52;6.80;;;2.90;;
781;SDS011;374;52.568;13.402;2023-05-31T04:43:19;4.80;;;2.80;;
781;SDS011;374;52.568;13.402;2023-05-31T04:45:44;3.37;;;2.80;;
781;SDS011;374;52.568;13.402;2023-05-31T04:48:10;4.33;;;3.83;;
781;SDS011;374;52.568;13.402;2023-05-31T04:50:36;6.90;;;2.77;;
781;SDS011;374;52.568;13.402;2023-05-31T04:53:02;6.40;;;3.63;;
781;SDS011;374;52.568;13.402;2023-05-31T04:55:28;6.60;;;3.40;;
781;SDS011;374;52.568;13.402;2023-05-31T04:57:53;6.30;;;3.67;;
781;SDS011;374;52.568;13.402;2023-05-31T05:00:19;5.27;;;2.90;;
781;SDS011;374;52.568;13.402;2023-05-31T05:02:45;4.43;;;3.20;;
781;SDS011;374;52.568;13.402;2023-05-31T05:05:10;6.23;;;3.10;;
781;SDS011;374;52.568;13.402;2023-05-31T05:07:36;4.27;;;2.90;;
781;SDS011;374;52.568;13.402;2023-05-31T05:10:02;14.30;;;3.60;;
781;SDS011;374;52.568;13.402;2023-05-31T05:12:28;5.00;;;2.70;;
781;SDS011;374;52.568;13.402;2023-05-31T05:14:54;5.50;;;2.97;;
781;SDS011;374;52.568;13.402;2023-05-31T05:17:20;7.23;;;4.07;;
781;SDS011;374;52.568;13.402;2023-05-31T05:19:45;4.90;;;2.83;;
781;SDS011;374;52.568;13.402;2023-05-31T05:22:11;4.10;;;2.83;;
781;SDS011;374;52.568;13.402;2023-05-31T05:24:36;3.40;;;2.80;;
781;SDS011;374;52.568;13.402;2023-05-31T05:27:02;4.90;;;3.00;;
781;SDS011;374;52.568;13.402;2023-05-31T05:29:27;7.20;;;3.10;;
781;SDS011;374;52.568;13.402;2023-05-31T05:31:53;4.60;;;3.60;;
781;SDS011;374;52.568;13.402;2023-05-31T05:34:19;7.03;;;3.20;;
781;SDS011;374;52.568;13.402;2023-05-31T05:36:51;6.40;;;3.10;;
781;SDS011;374;52.568;13.402;2023-05-31T05:39:17;6.83;;;3.27;;
781;SDS011;374;52.568;13.402;2023-05-31T05:41:45;4.47;;;3.47;;
781;SDS011;374;52.568;13.402;2023-05-31T05:44:11;4.30;;;2.97;;
781;SDS011;374;52.568;13.402;2023-05-31T05:46:36;5.67;;;3.00;;
781;SDS011;374;52.568;13.402;2023-05-31T05:49:02;8.37;;;3.80;;
781;SDS011;374;52.568;13.402;2023-05-31T05:51:27;3.33;;;3.13;;
781;SDS011;374;52.568;13.402;2023-05-31T05:53:53;6.27;;;3.47;;
781;SDS011;374;52.568;13.402;2023-05-31T05:56:18;3.43;;;3.00;;
781;SDS011;374;52.568;13.402;2023-05-31T05:58:44;6.57;;;3.37;;
781;SDS011;374;52.568;13.402;2023-05-31T06:01:11;5.70;;;2.80;;
781;SDS011;374;52.568;13.402;2023-05-31T06:03:47;4.60;;;2.80;;
781;SDS011;374;52.568;13.402;2023-05-31T06:06:14;10.47;;;3.30;;
781;SDS011;374;52.568;13.402;2023-05-31T06:08:39;4.93;;;3.70;;
781;SDS011;374;52.568;13.402;2023-05-31T06:11:05;5.60;;;2.73;;
781;SDS011;374;52.568;13.402;2023-05-31T06:13:30;9.63;;;3.53;;
781;SDS011;374;52.568;13.402;2023-05-31T06:15:57;6.70;;;3.17;;
781;SDS011;374;52.568;13.402;2023-05-31T06:18:22;6.10;;;2.77;;
781;SDS011;374;52.568;13.402;2023-05-31T06:20:48;5.80;;;2.90;;
781;SDS011;374;52.568;13.402;2023-05-31T06:23:13;6.43;;;3.23;;
781;SDS011;374;52.568;13.402;2023-05-31T06:25:39;4.57;;;2.50;;
781;SDS011;374;52.568;13.402;2023-05-31T06:28:04;5.90;;;3.13;;
781;SDS011;374;52.568;13.402;2023-05-31T06:30:30;7.43;;;3.10;;
781;SDS011;374;52.568;13.402;2023-05-31T06:32:55;6.00;;;2.77;;
781;SDS011;374;52.568;13.402;2023-05-31T06:35:21;3.80;;;2.53;;
781;SDS011;374;52.568;13.402;2023-05-31T06:37:48;5.53;;;2.90;;
781;SDS011;374;52.568;13.402;2023-05-31T06:40:18;6.67;;;2.80;;
781;SDS011;374;52.568;13.402;2023-05-31T06:42:44;6.20;;;2.80;;
781;SDS011;374;52.568;13.402;2023-05-31T06:45:10;5.33;;;2.60;;
781;SDS011;374;52.568;13.402;2023-05-31T06:47:35;3.30;;;2.30;;
781;SDS011;374;52.568;13.402;2023-05-31T06:50:01;4.60;;;3.17;;
781;SDS011;374;52.568;13.402;2023-05-31T06:52:27;5.50;;;3.13;;
781;SDS011;374;52.568;13.402;2023-05-31T06:54:53;5.70;;;3.17;;
781;SDS011;374;52.568;13.402;2023-05-31T06:57:19;5.97;;;3.10;;
781;SDS011;374;52.568;13.402;2023-05-31T06:59:45;4.93;;;2.60;;
781;SDS011;374;52.568;13.402;2023-05-31T07:02:10;6.47;;;3.23;;
781;SDS011;374;52.568;13.402;2023-05-31T07:04:36;5.60;;;2.87;;
781;SDS011;374;52.568;13.402;2023-05-31T07:07:01;5.13;;;2.63;;
781;SDS011;374;52.568;13.402;2023-05-31T07:09:28;5.50;;;3.93;;
781;SDS011;374;52.568;13.402;2023-05-31T07:11:54;7.20;;;6.60;;
781;SDS011;374;52.568;13.402;2023-05-31T07:14:19;6.00;;;4.27;;
781;SDS011;374;52.568;13.402;2023-05-31T07:16:49;5.43;;;2.87;;
781;SDS011;374;52.568;13.402;2023-05-31T07:19:15;3.70;;;3.13;;
781;SDS011;374;52.568;13.402;2023-05-31T07:21:40;7.63;;;2.97;;
781;SDS011;374;52.568;13.402;2023-05-31T07:24:06;5.63;;;3.13;;
781;SDS011;374;52.568;13.402;2023-05-31T07:26:31;6.40;;;3.67;;
781;SDS011;374;52.568;13.402;2023-05-31T07:28:57;9.77;;;3.37;;
781;SDS011;374;52.568;13.402;2023-05-31T07:31:22;3.37;;;2.90;;
781;SDS011;374;52.568;13.402;2023-05-31T07:33:48;7.60;;;3.07;;
781;SDS011;374;52.568;13.402;2023-05-31T07:36:14;8.23;;;3.23;;
781;SDS011;374;52.568;13.402;2023-05-31T07:38:40;4.57;;;3.07;;
781;SDS011;374;52.568;13.402;2023-05-31T07:41:09;3.60;;;2.87;;
781;SDS011;374;52.568;13.402;2023-05-31T07:43:34;7.90;;;3.70;;
781;SDS011;374;52.568;13.402;2023-05-31T07:46:01;5.40;;;3.30;;
781;SDS011;374;52.568;13.402;2023-05-31T07:48:27;6.63;;;2.50;;
781;SDS011;374;52.568;13.402;2023-05-31T07:50:53;3.80;;;2.73;;
781;SDS011;374;52.568;13.402;2023-05-31T07:53:18;5.67;;;3.00;;
781;SDS011;374;52.568;13.402;2023-05-31T07:55:44;7.60;;;2.50;;
781;SDS011;374;52.568;13.402;2023-05-31T07:58:10;6.17;;;3.33;;
781;SDS011;374;52.568;13.402;2023-05-31T08:00:36;6.00;;;2.30;;
781;SDS011;374;52.568;13.402;2023-05-31T08:03:03;5.83;;;2.90;;
781;SDS011;374;52.568;13.402;2023-05-31T08:05:28;3.03;;;2.60;;
781;SDS011;374;52.568;13.402;2023-05-31T08:07:54;4.60;;;2.77;;
781;SDS011;374;52.568;13.402;2023-05-31T08:10:28;7.33;;;6.63;;
781;SDS011;374;52.568;13.402;2023-05-31T08:12:57;5.23;;;3.70;;
781;SDS011;374;52.568;13.402;2023-05-31T08:15:25;3.73;;;2.37;;
781;SDS011;374;52.568;13.402;2023-05-31T08:17:50;3.30;;;2.40;;
781;SDS011;374;52.568;13.402;2023-05-31T08:20:23;4.60;;;2.80;;
781;SDS011;374;52.568;13.402;2023-05-31T08:22:49;4.73;;;2.50;;
781;SDS011;374;52.568;13.402;2023-05-31T08:25:15;5.00;;;2.73;;
781;SDS011;374;52.568;13.402;2023-05-31T08:27:42;5.67;;;2.87;;
781;SDS011;374;52.568;13.402;2023-05-31T08:30:08;3.03;;;2.60;;
781;SDS011;374;52.568;13.402;2023-05-31T08:32:34;5.73;;;2.63;;
781;SDS011;374;52.568;13.402;2023-05-31T08:35:03;3.17;;;2.30;;
781;SDS011;374;52.568;13.402;2023-05-31T08:37:31;3.30;;;2.87;;
781;SDS011;374;52.568;13.402;2023-05-31T08:40:05;5.13;;;3.17;;
781;SDS011;374;52.568;13.402;2023-05-31T08:42:37;2.90;;;2.50;;
781;SDS011;374;52.568;13.402;2023-05-31T08:45:02;3.30;;;1.90;;
781;SDS011;374;52.568;13.402;2023-05-31T08:47:38;4.67;;;2.50;;
781;SDS011;374;52.568;13.402;2023-05-31T08:50:08;3.83;;;2.17;;
781;SDS011;374;52.568;13.402;2023-05-31T08:52:35;4.30;;;2.60;;
781;SDS011;374;52.568;13.402;2023-05-31T08:55:01;3.40;;;2.23;;
781;SDS011;374;52.568;13.402;2023-05-31T08:57:28;3.90;;;2.80;;
781;SDS011;374;52.568;13.402;2023-05-31T08:59:55;4.43;;;3.20;;
781;SDS011;374;52.568;13.402;2023-05-31T09:02:23;6.60;;;5.90;;
781;SDS011;374;52.568;13.402;2023-05-31T09:04:50;6.07;;;5.13;;
781;SDS011;374;52.568;13.402;2023-05-31T09:07:15;4.63;;;3.40;;
781;SDS011;374;52.568;13.402;2023-05-31T09:09:41;3.17;;;2.50;;
781;SDS011;374;52.568;13.402;2023-05-31T09:12:07;4.13;;;3.10;;
781;SDS011;374;52.568;13.402;2023-05-31T09:14:33;4.93;;;2.80;;
781;SDS011;374;52.568;13.402;2023-05-31T09:16:59;2.83;;;2.23;;
781;SDS011;374;52.568;13.402;2023-05-31T09:19:25;3.97;;;2.00;;
781;SDS011;374;52.568;13.402;2023-05-31T09:21:51;3.60;;;2.67;;
781;SDS011;374;52.568;13.402;2023-05-31T09:24:17;5.40;;;1.93;;
781;SDS011;374;52.568;13.402;2023-05-31T09:26:50;4.70;;;2.40;;
781;SDS011;374;52.568;13.402;2023-05-31T09:29:17;4.10;;;2.87;;
781;SDS011;374;52.568;13.402;2023-05-31T09:31:44;6.23;;;3.53;;
781;SDS011;374;52.568;13.402;2023-05-31T09:34:23;6.70;;;2.63;;
781;SDS011;374;52.568;13.402;2023-05-31T09:36:57;2.40;;;2.20;;
781;SDS011;374;52.568;13.402;2023-05-31T09:39:23;6.57;;;2.77;;
781;SDS011;374;52.568;13.402;2023-05-31T09:41:49;7.30;;;5.97;;
781;SDS011;374;52.568;13.402;2023-05-31T09:44:15;9.87;;;3.83;;
781;SDS011;374;52.568;13.402;2023-05-31T09:46:41;3.87;;;2.70;;
781;SDS011;374;52.568;13.402;2023-05-31T09:49:06;3.60;;;2.27;;
781;SDS011;374;52.568;13.402;2023-05-31T09:51:34;6.47;;;2.53;;
781;SDS011;374;52.568;13.402;2023-05-31T09:54:01;5.43;;;2.20;;
781;SDS011;374;52.568;13.402;2023-05-31T09:56:35;7.43;;;2.47;;
781;SDS011;374;52.568;13.402;2023-05-31T09:59:01;3.70;;;2.17;;
781;SDS011;374;52.568;13.402;2023-05-31T10:01:31;3.20;;;2.00;;
781;SDS011;374;52.568;13.402;2023-05-31T10:03:57;2.67;;;1.80;;
781;SDS011;374;52.568;13.402;2023-05-31T10:06:24;2.50;;;2.30;;
781;SDS011;374;52.568;13.402;2023-05-31T10:08:51;2.30;;;1.70;;
781;SDS011;374;52.568;13.402;2023-05-31T10:11:26;2.57;;;1.70;;
781;SDS011;374;52.568;13.402;2023-05-31T10:13:59;3.70;;;1.97;;
781;SDS011;374;52.568;13.402;2023-05-31T10:16:26;3.10;;;2.13;;
781;SDS011;374;52.568;13.402;2023-05-31T10:18:58;1.70;;;1.60;;
781;SDS011;374;52.568;13.402;2023-05-31T10:21:29;3.43;;;2.13;;
781;SDS011;374;52.568;13.402;2023-05-31T10:24:02;4.60;;;2.60;;
781;SDS011;374;52.568;13.402;2023-05-31T10:26:42;5.10;;;3.00;;
781;SDS011;374;52.568;13.402;2023-05-31T10:29:18;13.97;;;2.57;;
781;SDS011;374;52.568;13.402;2023-05-31T10:31:49;2.67;;;2.30;;
781;SDS011;374;52.568;13.402;2023-05-31T10:34:25;2.80;;;1.97;;
781;SDS011;374;52.568;13.402;2023-05-31T10:36:51;2.87;;;2.30;;
781;SDS011;374;52.568;13.402;2023-05-31T10:39:21;2.20;;;1.67;;
781;SDS011;374;52.568;13.402;2023-05-31T10:42:40;2.77;;;1.80;;
781;SDS011;374;52.568;13.402;2023-05-31T10:44:46;2.37;;;1.20;;
781;SDS011;374;52.568;13.402;2023-05-31T10:47:19;2.00;;;1.70;;
781;SDS011;374;52.568;13.402;2023-05-31T10:49:49;1.80;;;1.70;;
781;SDS011;374;52.568;13.402;2023-05-31T10:52:17;7.13;;;2.27;;
781;SDS011;374;52.568;13.402;2023-05-31T10:54:43;1.93;;;1.40;;
781;SDS011;374;52.568;13.402;2023-05-31T10:57:08;2.53;;;1.50;;
781;SDS011;374;52.568;13.402;2023-05-31T10:59:42;3.93;;;1.50;;
781;SDS011;374;52.568;13.402;2023-05-31T11:02:10;2.27;;;1.60;;
781;SDS011;374;52.568;13.402;2023-05-31T11:04:36;2.43;;;1.60;;
781;SDS011;374;52.568;13.402;2023-05-31T11:09:55;1.77;;;1.33;;
781;SDS011;374;52.568;13.402;2023-05-31T11:12:33;2.40;;;1.40;;
781;SDS011;374;52.568;13.402;2023-05-31T11:15:11;1.90;;;1.77;;
781;SDS011;374;52.568;13.402;2023-05-31T11:17:54;1.30;;;1.17;;
781;SDS011;374;52.568;13.402;2023-05-31T11:20:20;2.20;;;1.40;;
781;SDS011;374;52.568;13.402;2023-05-31T11:22:47;2.10;;;1.20;;
781;SDS011;374;52.568;13.402;2023-05-31T11:25:18;1.43;;;1.27;;
781;SDS011;374;52.568;13.402;2023-05-31T11:27:45;1.30;;;1.17;;
781;SDS011;374;52.568;13.402;2023-05-31T11:30:15;1.40;;;1.00;;
781;SDS011;374;52.568;13.402;2023-05-31T11:35:11;1.73;;;1.57;;
781;SDS011;374;52.568;13.402;2023-05-31T11:37:42;1.93;;;1.33;;
781;SDS011;374;52.568;13.402;2023-05-31T11:40:11;1.30;;;1.20;;
781;SDS011;374;52.568;13.402;2023-05-31T11:42:40;1.70;;;1.40;;
781;SDS011;374;52.568;13.402;2023-05-31T11:45:11;2.60;;;1.60;;
781;SDS011;374;52.568;13.402;2023-05-31T11:47:39;1.20;;;1.10;;
781;SDS011;374;52.568;13.402;2023-05-31T11:50:10;1.17;;;0.90;;
781;SDS011;374;52.568;13.402;2023-05-31T11:52:41;2.40;;;1.20;;
781;SDS011;374;52.568;13.402;2023-05-31T11:55:07;3.03;;;1.57;;
781;SDS011;374;52.568;13.402;2023-05-31T11:57:43;1.20;;;1.10;;
781;SDS011;374;52.568;13.402;2023-05-31T12:00:19;4.80;;;1.30;;
781;SDS011;374;52.568;13.402;2023-05-31T12:02:51;1.50;;;1.40;;
781;SDS011;374;52.568;13.402;2023-05-31T12:05:17;2.80;;;1.60;;
781;SDS011;374;52.568;13.402;2023-05-31T12:07:44;1.20;;;1.10;;
781;SDS011;374;52.568;13.402;2023-05-31T12:10:10;1.20;;;1.10;;
781;SDS011;374;52.568;13.402;2023-05-31T12:12:38;1.83;;;0.90;;
781;SDS011;374;52.568;13.402;2023-05-31T12:15:04;2.20;;;1.43;;
781;SDS011;374;52.568;13.402;2023-05-31T12:17:30;1.10;;;1.10;;
781;SDS011;374;52.568;13.402;2023-05-31T12:19:56;2.93;;;1.57;;
781;SDS011;374;52.568;13.402;2023-05-31T12:22:22;1.13;;;1.03;;
781;SDS011;374;52.568;13.402;2023-05-31T12:24:54;1.20;;;1.10;;
781;SDS011;374;52.568;13.402;2023-05-31T12:27:21;1.37;;;1.27;;
781;SDS011;374;52.568;13.402;2023-05-31T12:29:55;1.60;;;1.20;;
781;SDS011;374;52.568;13.402;2023-05-31T12:32:25;3.20;;;1.50;;
781;SDS011;374;52.568;13.402;2023-05-31T12:34:53;1.30;;;1.07;;
781;SDS011;374;52.568;13.402;2023-05-31T12:37:28;1.23;;;1.10;;
781;SDS011;374;52.568;13.402;2023-05-31T12:42:41;1.27;;;1.17;;
781;SDS011;374;52.568;13.402;2023-05-31T12:45:07;1.80;;;1.30;;
781;SDS011;374;52.568;13.402;2023-05-31T12:47:34;2.60;;;1.80;;
781;SDS011;374;52.568;13.402;2023-05-31T12:50:01;1.47;;;1.17;;
781;SDS011;374;52.568;13.402;2023-05-31T12:52:34;1.10;;;1.00;;
781;SDS011;374;52.568;13.402;2023-05-31T12:55:01;1.00;;;1.00;;
781;SDS011;374;52.568;13.402;2023-05-31T12:57:26;0.97;;;0.97;;
781;SDS011;374;52.568;13.402;2023-05-31T13:02:36;3.70;;;1.60;;
781;SDS011;374;52.568;13.402;2023-05-31T13:05:03;1.30;;;1.00;;
781;SDS011;374;52.568;13.402;2023-05-31T13:07:30;1.83;;;1.10;;
781;SDS011;374;52.568;13.402;2023-05-31T13:09:55;1.27;;;1.17;;
781;SDS011;374;52.568;13.402;2023-05-31T13:12:21;2.00;;;1.20;;
781;SDS011;374;52.568;13.402;2023-05-31T13:14:47;1.67;;;1.50;;
781;SDS011;374;52.568;13.402;2023-05-31T13:17:12;2.10;;;1.43;;
781;SDS011;374;52.568;13.402;2023-05-31T13:19:38;2.57;;;1.57;;
781;SDS011;374;52.568;13.402;2023-05-31T13:22:04;2.50;;;1.27;;
781;SDS011;374;52.568;13.402;2023-05-31T13:24:30;1.83;;;1.73;;
781;SDS011;374;52.568;13.402;2023-05-31T13:26:55;8.23;;;2.13;;
781;SDS011;374;52.568;13.402;2023-05-31T13:29:21;2.30;;;1.37;;
781;SDS011;374;52.568;13.402;2023-05-31T13:31:50;2.97;;;1.83;;
781;SDS011;374;52.568;13.402;2023-05-31T13:34:16;2.13;;;1.93;;
781;SDS011;374;52.568;13.402;2023-05-31T13:36:42;4.70;;;1.47;;
781;SDS011;374;52.568;13.402;2023-05-31T13:39:08;2.10;;;1.50;;
781;SDS011;374;52.568;13.402;2023-05-31T13:41:39;2.40;;;2.20;;
781;SDS011;374;52.568;13.402;2023-05-31T13:44:06;3.07;;;1.63;;
781;SDS011;374;52.568;13.402;2023-05-31T13:46:32;4.07;;;2.27;;
781;SDS011;374;52.568;13.402;2023-05-31T13:48:57;2.70;;;1.50;;
781;SDS011;374;52.568;13.402;2023-05-31T13:51:22;5.60;;;1.97;;
781;SDS011;374;52.568;13.402;2023-05-31T13:53:48;2.53;;;2.33;;
781;SDS011;374;52.568;13.402;2023-05-31T13:56:17;4.60;;;1.63;;
781;SDS011;374;52.568;13.402;2023-05-31T13:58:42;2.40;;;1.47;;
781;SDS011;374;52.568;13.402;2023-05-31T14:01:08;2.40;;;1.60;;
781;SDS011;374;52.568;13.402;2023-05-31T14:03:36;2.83;;;1.57;;
781;SDS011;374;52.568;13.402;2023-05-31T14:06:02;2.63;;;1.47;;
781;SDS011;374;52.568;13.402;2023-05-31T14:08:28;1.97;;;1.50;;
781;SDS011;374;52.568;13.402;2023-05-31T14:10:55;1.73;;;1.40;;
781;SDS011;374;52.568;13.402;2023-05-31T14:13:20;1.90;;;1.47;;
781;SDS011;374;52.568;13.402;2023-05-31T14:15:46;2.47;;;1.40;;
781;SDS011;374;52.568;13.402;2023-05-31T14:18:12;3.50;;;1.70;;
781;SDS011;374;52.568;13.402;2023-05-31T14:20:38;2.50;;;1.60;;
781;SDS011;374;52.568;13.402;2023-05-31T14:23:03;1.33;;;1.27;;
781;SDS011;374;52.568;13.402;2023-05-31T14:25:29;2.27;;;1.60;;
781;SDS011;374;52.568;13.402;2023-05-31T14:27:55;2.73;;;1.70;;
781;SDS011;374;52.568;13.402;2023-05-31T14:30:21;1.97;;;1.50;;
781;SDS011;374;52.568;13.402;2023-05-31T14:32:46;1.70;;;1.60;;
781;SDS011;374;52.568;13.402;2023-05-31T14:35:12;3.60;;;2.13;;
781;SDS011;374;52.568;13.402;2023-05-31T14:37:37;2.03;;;1.23;;
781;SDS011;374;52.568;13.402;2023-05-31T14:40:03;1.83;;;1.40;;
781;SDS011;374;52.568;13.402;2023-05-31T14:42:30;1.90;;;1.57;;
781;SDS011;374;52.568;13.402;2023-05-31T14:44:56;1.50;;;1.40;;
781;SDS011;374;52.568;13.402;2023-05-31T14:47:22;1.53;;;1.43;;
781;SDS011;374;52.568;13.402;2023-05-31T14:49:47;2.90;;;2.10;;
781;SDS011;374;52.568;13.402;2023-05-31T14:52:13;2.10;;;1.90;;
781;SDS011;374;52.568;13.402;2023-05-31T14:54:41;2.03;;;1.70;;
781;SDS011;374;52.568;13.402;2023-05-31T14:57:07;2.47;;;1.53;;
781;SDS011;374;52.568;13.402;2023-05-31T14:59:32;1.60;;;1.50;;
781;SDS011;374;52.568;13.402;2023-05-31T15:01:58;1.73;;;1.40;;
781;SDS011;374;52.568;13.402;2023-05-31T15:04:24;1.77;;;1.50;;
781;SDS011;374;52.568;13.402;2023-05-31T15:06:51;3.37;;;2.40;;
781;SDS011;374;52.568;13.402;2023-05-31T15:09:16;3.00;;;2.67;;
781;SDS011;374;52.568;13.402;2023-05-31T15:11:42;2.90;;;2.53;;
781;SDS011;374;52.568;13.402;2023-05-31T15:14:07;6.53;;;5.80;;
781;SDS011;374;52.568;13.402;2023-05-31T15:16:34;2.80;;;1.50;;
781;SDS011;374;52.568;13.402;2023-05-31T15:19:01;2.53;;;1.97;;
781;SDS011;374;52.568;13.402;2023-05-31T15:21:26;3.30;;;2.80;;
781;SDS011;374;52.568;13.402;2023-05-31T15:23:52;3.00;;;2.63;;
781;SDS011;374;52.568;13.402;2023-05-31T15:26:17;24.30;;;18.40;;
781;SDS011;374;52.568;13.402;2023-05-31T15:28:44;10.50;;;5.60;;
781;SDS011;374;52.568;13.402;2023-05-31T15:31:09;359.77;;;279.20;;
781;SDS011;374;52.568;13.402;2023-05-31T15:33:35;147.67;;;115.37;;
781;SDS011;374;52.568;13.402;2023-05-31T15:36:01;125.10;;;95.43;;
781;SDS011;374;52.568;13.402;2023-05-31T15:38:27;191.43;;;151.80;;
781;SDS011;374;52.568;13.402;2023-05-31T15:40:53;179.63;;;118.83;;
781;SDS011;374;52.568;13.402;2023-05-31T15:43:20;243.10;;;181.33;;
781;SDS011;374;52.568;13.402;2023-05-31T15:45:46;278.13;;;229.10;;
781;SDS011;374;52.568;13.402;2023-05-31T15:48:11;169.30;;;124.10;;